createdAt,value
2019-04-14T00:00:55.389Z,30.15
2019-04-14T00:03:46.241Z,30.97
2019-04-14T00:06:15.944Z,32.08
2019-04-14T00:08:45.932Z,29.48
2019-04-14T00:11:15.378Z,29.15
2019-04-14T00:13:45.665Z,31.70
2019-04-14T00:16:16.418Z,30.30
2019-04-14T00:18:46.882Z,31.12
2019-04-14T00:21:17.252Z,30.25
2019-04-14T00:23:47.821Z,30.35
2019-04-14T00:26:31.490Z,30.60
2019-04-14T00:29:02.693Z,29.90
2019-04-14T00:31:32.903Z,29.12
2019-04-14T00:34:05.370Z,28.67
2019-04-14T00:36:43.688Z,30.00
2019-04-14T00:39:21.033Z,31.33
2019-04-14T00:41:58.384Z,30.65
2019-04-14T00:44:40.875Z,31.68
2019-04-14T00:47:12.160Z,30.20
2019-04-14T00:49:41.875Z,33.18
2019-04-14T00:52:12.387Z,32.20
2019-04-14T00:54:42.122Z,30.65
2019-04-14T00:57:11.569Z,31.50
2019-04-14T00:59:42.126Z,32.15
2019-04-14T01:02:12.395Z,33.02
2019-04-14T01:04:42.636Z,32.55
2019-04-14T01:07:13.050Z,32.17
2019-04-14T01:09:42.406Z,32.95
2019-04-14T01:12:12.724Z,33.73
2019-04-14T01:14:43.092Z,32.70
2019-04-14T01:17:13.416Z,33.15
2019-04-14T01:19:43.890Z,32.40
2019-04-14T01:22:14.178Z,33.25
2019-04-14T01:24:44.618Z,35.13
2019-04-14T01:27:14.581Z,34.10
2019-04-14T01:29:44.882Z,34.55
2019-04-14T01:32:15.395Z,34.80
2019-04-14T01:34:45.515Z,34.05
2019-04-14T01:37:15.927Z,33.53
2019-04-14T01:39:46.061Z,33.08
2019-04-14T01:42:15.893Z,34.58
2019-04-14T01:44:45.968Z,35.17
2019-04-14T01:47:15.936Z,35.60
2019-04-14T01:49:46.538Z,35.20
2019-04-14T01:52:23.258Z,33.65
2019-04-14T01:54:54.257Z,34.05
2019-04-14T01:57:43.802Z,33.88
2019-04-14T02:00:31.666Z,34.03
2019-04-14T02:03:01.934Z,34.65
2019-04-14T02:05:32.095Z,33.55
2019-04-14T02:08:02.339Z,35.38
2019-04-14T02:10:32.645Z,32.85
2019-04-14T02:13:02.798Z,33.50
2019-04-14T02:15:33.038Z,33.33
2019-04-14T02:18:03.228Z,36.05
2019-04-14T02:20:33.839Z,38.20
2019-04-14T02:23:03.999Z,35.92
2019-04-14T02:25:33.882Z,34.92
2019-04-14T02:28:04.682Z,35.08
2019-04-14T02:30:41.628Z,35.80
2019-04-14T02:33:40.785Z,36.45
2019-04-14T02:36:05.749Z,35.25
2019-04-14T02:38:40.914Z,36.60
2019-04-14T02:41:11.006Z,35.55
2019-04-14T02:43:39.614Z,36.23
2019-04-14T02:46:04.145Z,35.33
2019-04-14T02:48:44.200Z,34.80
2019-04-14T02:51:05.765Z,37.03
2019-04-14T02:53:44.460Z,36.65
2019-04-14T02:56:18.160Z,35.73
2019-04-14T02:58:50.013Z,36.08
2019-04-14T03:03:43.562Z,37.42
2019-04-14T03:06:13.030Z,35.88
2019-04-14T03:08:51.240Z,35.55
2019-04-14T03:11:20.595Z,37.60
2019-04-14T03:16:27.208Z,37.58
2019-04-14T03:18:55.221Z,37.70
2019-04-14T03:21:34.788Z,37.83
2019-04-14T03:24:03.081Z,37.20
2019-04-14T03:26:41.903Z,38.35
2019-04-14T03:29:21.161Z,39.38
2019-04-14T03:34:34.425Z,37.95
2019-04-14T03:39:24.876Z,37.90
2019-04-14T03:41:52.778Z,36.85
2019-04-14T03:44:32.991Z,37.85
2019-04-14T03:46:59.021Z,36.30
2019-04-14T03:49:32.120Z,37.95
2019-04-14T03:51:57.864Z,37.15
2019-04-14T03:54:28.730Z,38.40
2019-04-14T03:56:51.440Z,36.17
2019-04-14T03:59:21.874Z,39.30
2019-04-14T04:01:52.306Z,37.78
2019-04-14T04:04:22.729Z,37.23
2019-04-14T04:06:53.153Z,37.83
2019-04-14T04:09:25.625Z,38.58
2019-04-14T04:11:56.209Z,38.50
2019-04-14T04:14:26.975Z,38.13
2019-04-14T04:17:14.624Z,38.58
2019-04-14T04:19:46.906Z,38.15
2019-04-14T04:22:19.254Z,38.10
2019-04-14T04:24:56.450Z,37.83
2019-04-14T04:27:37.336Z,38.80
2019-04-14T04:30:10.197Z,37.78
2019-04-14T04:32:47.076Z,37.33
2019-04-14T04:35:18.038Z,38.63
2019-04-14T04:37:52.082Z,37.75
2019-04-14T04:40:24.716Z,38.92
2019-04-14T04:42:54.815Z,38.83
2019-04-14T04:45:25.587Z,38.78
2019-04-14T04:47:55.599Z,40.28
2019-04-14T04:50:26.006Z,37.35
2019-04-14T04:52:56.218Z,39.63
2019-04-14T04:55:26.292Z,39.42
2019-04-14T04:57:56.629Z,38.17
2019-04-14T05:00:26.656Z,39.85
2019-04-14T05:02:57.120Z,39.30
2019-04-14T05:06:03.223Z,38.75
2019-04-14T05:08:34.728Z,39.18
2019-04-14T05:11:06.019Z,39.42
2019-04-14T05:13:36.737Z,39.20
2019-04-14T05:16:06.527Z,38.58
2019-04-14T05:18:35.867Z,39.03
2019-04-14T05:21:06.056Z,38.98
2019-04-14T05:23:36.624Z,39.27
2019-04-14T05:26:07.078Z,38.35
2019-04-14T05:28:37.411Z,38.20
2019-04-14T05:31:07.622Z,37.42
2019-04-14T05:33:38.375Z,39.08
2019-04-14T05:36:08.527Z,38.13
2019-04-14T05:38:38.633Z,36.70
2019-04-14T05:41:09.005Z,36.03
2019-04-14T05:43:48.144Z,37.05
2019-04-14T05:46:09.841Z,37.75
2019-04-14T05:48:40.312Z,37.40
2019-04-14T05:51:10.660Z,39.27
2019-04-14T05:53:41.494Z,38.35
2019-04-14T05:56:12.087Z,36.20
2019-04-14T05:58:42.531Z,36.00
2019-04-14T06:01:13.580Z,39.15
2019-04-14T06:03:43.315Z,37.38
2019-04-14T06:06:12.672Z,37.55
2019-04-14T06:08:42.067Z,36.80
2019-04-14T06:11:11.385Z,38.08
2019-04-14T06:13:40.713Z,37.67
2019-04-14T06:16:10.042Z,36.58
2019-04-14T06:18:39.454Z,36.17
2019-04-14T06:21:08.782Z,35.08
2019-04-14T06:23:38.130Z,35.68
2019-04-14T06:26:07.450Z,35.00
2019-04-14T06:28:36.790Z,34.03
2019-04-14T06:31:26.064Z,34.48
2019-04-14T06:34:05.769Z,33.38
2019-04-14T06:36:51.758Z,34.50
2019-04-14T06:39:22.738Z,33.18
2019-04-14T06:41:52.081Z,33.73
2019-04-14T06:44:21.418Z,34.18
2019-04-14T06:46:50.742Z,33.90
2019-04-14T06:49:20.086Z,33.48
2019-04-14T06:51:49.406Z,32.05
2019-04-14T06:54:18.754Z,34.48
2019-04-14T06:56:48.072Z,32.73
2019-04-14T06:59:17.402Z,32.85
2019-04-14T07:01:46.734Z,31.60
2019-04-14T07:04:16.066Z,33.60
2019-04-14T07:06:45.707Z,30.43
2019-04-14T07:09:15.065Z,30.50
2019-04-14T07:11:44.474Z,29.15
2019-04-14T07:14:14.789Z,29.50
2019-04-14T07:16:44.115Z,29.25
2019-04-14T07:19:13.446Z,27.98
2019-04-14T07:21:42.787Z,27.10
2019-04-14T07:24:12.118Z,25.80
2019-04-14T07:26:41.723Z,26.55
2019-04-14T07:29:11.094Z,26.20
2019-04-14T07:32:00.307Z,26.35
2019-04-14T07:34:37.229Z,24.50
2019-04-14T07:37:19.068Z,24.50
2019-04-14T07:39:52.887Z,24.65
2019-04-14T07:42:41.550Z,23.18
2019-04-14T07:45:12.794Z,22.35
2019-04-14T07:47:43.766Z,22.17
2019-04-14T07:50:17.606Z,21.10
2019-04-14T07:52:51.591Z,21.35
2019-04-14T07:55:25.329Z,22.13
2019-04-14T07:57:58.986Z,21.05
2019-04-14T08:00:45.086Z,21.15
2019-04-14T08:03:28.016Z,21.40
2019-04-14T08:05:57.354Z,20.77
2019-04-14T08:08:26.698Z,20.45
2019-04-14T08:10:57.291Z,20.80
2019-04-14T08:13:26.619Z,19.23
2019-04-14T08:15:55.961Z,17.75
2019-04-14T08:18:25.287Z,18.00
2019-04-14T08:20:54.640Z,18.50
2019-04-14T08:23:24.038Z,18.17
2019-04-14T08:25:53.378Z,18.20
2019-04-14T08:28:22.717Z,18.70
2019-04-14T08:30:52.069Z,18.67
2019-04-14T08:33:21.402Z,18.55
2019-04-14T08:35:50.753Z,18.27
2019-04-14T08:38:20.073Z,17.82
2019-04-14T08:40:49.431Z,16.93
2019-04-14T08:43:24.070Z,16.80
2019-04-14T08:45:57.816Z,15.20
2019-04-14T08:48:47.268Z,15.08
2019-04-14T08:51:27.422Z,15.35
2019-04-14T08:54:00.886Z,14.58
2019-04-14T08:56:40.750Z,14.75
2019-04-14T08:59:14.149Z,13.10
2019-04-14T09:01:57.086Z,14.25
2019-04-14T09:04:36.834Z,13.95
2019-04-14T09:07:07.833Z,13.93
2019-04-14T09:09:41.580Z,13.65
2019-04-14T09:12:18.434Z,13.68
2019-04-14T09:14:56.742Z,13.03
2019-04-14T09:17:19.155Z,14.28
2019-04-14T09:19:48.492Z,13.13
2019-04-14T09:22:17.830Z,12.90
2019-04-14T09:24:47.165Z,13.10
2019-04-14T09:27:16.503Z,12.45
2019-04-14T09:29:45.833Z,12.13
2019-04-14T09:32:15.354Z,11.90
2019-04-14T09:34:45.757Z,11.63
2019-04-14T09:37:15.141Z,12.15
2019-04-14T09:39:44.505Z,13.00
2019-04-14T09:42:13.850Z,12.93
2019-04-14T09:44:43.188Z,12.25
2019-04-14T09:47:12.562Z,11.93
2019-04-14T09:49:42.002Z,11.88
2019-04-14T09:52:11.367Z,12.47
2019-04-14T09:54:40.745Z,11.43
2019-04-14T09:57:10.115Z,12.35
2019-04-14T09:59:39.438Z,11.40
2019-04-14T10:02:08.778Z,12.55
2019-04-14T10:04:38.207Z,11.80
2019-04-14T10:07:07.542Z,12.33
2019-04-14T10:09:36.967Z,12.13
2019-04-14T10:12:06.442Z,12.43
2019-04-14T10:14:35.797Z,12.40
2019-04-14T10:17:05.198Z,11.83
2019-04-14T10:19:34.544Z,12.50
2019-04-14T10:22:03.872Z,11.35
2019-04-14T10:24:33.213Z,12.07
2019-04-14T10:27:03.610Z,11.70
2019-04-14T10:29:32.953Z,12.15
2019-04-14T10:32:02.364Z,11.80
2019-04-14T10:34:31.703Z,11.78
2019-04-14T10:37:01.047Z,10.95
2019-04-14T10:39:30.391Z,11.20
2019-04-14T10:41:59.717Z,11.15
2019-04-14T10:44:29.057Z,11.08
2019-04-14T10:46:58.389Z,10.88
2019-04-14T10:49:27.731Z,11.12
2019-04-14T10:51:57.128Z,10.75
2019-04-14T10:54:26.476Z,10.28
2019-04-14T10:56:55.799Z,11.18
2019-04-14T10:59:25.158Z,9.80
2019-04-14T11:01:54.540Z,10.85
2019-04-14T11:04:23.895Z,11.18
2019-04-14T11:07:03.862Z,10.50
2019-04-14T11:09:33.193Z,10.08
2019-04-14T11:12:02.526Z,10.75
2019-04-14T11:14:31.857Z,11.00
2019-04-14T11:17:01.186Z,10.08
2019-04-14T11:19:30.532Z,11.65
2019-04-14T11:21:59.866Z,10.82
2019-04-14T11:24:29.210Z,10.40
2019-04-14T11:26:58.534Z,10.95
2019-04-14T11:29:27.875Z,10.63
2019-04-14T11:32:07.618Z,11.05
2019-04-14T11:34:38.593Z,10.32
2019-04-14T11:37:15.037Z,10.90
2019-04-14T11:39:45.699Z,10.53
2019-04-14T11:42:15.126Z,10.20
2019-04-14T11:44:44.781Z,10.48
2019-04-14T11:47:16.239Z,10.00
2019-04-14T11:49:45.250Z,9.13
2019-04-14T11:52:14.582Z,9.73
2019-04-14T11:54:43.926Z,9.73
2019-04-14T11:57:13.251Z,9.43
2019-04-14T11:59:53.443Z,10.38
2019-04-14T12:02:26.858Z,10.50
2019-04-14T12:05:06.379Z,10.48
2019-04-14T12:07:49.334Z,10.82
2019-04-14T12:10:18.947Z,11.93
2019-04-14T12:12:48.274Z,10.45
2019-04-14T12:15:17.635Z,10.28
2019-04-14T12:17:46.971Z,10.75
2019-04-14T12:20:16.373Z,10.48
2019-04-14T12:22:45.717Z,10.58
2019-04-14T12:25:15.037Z,9.85
2019-04-14T12:27:44.412Z,10.20
2019-04-14T12:30:13.926Z,10.35
2019-04-14T12:32:43.347Z,10.85
2019-04-14T12:35:13.105Z,11.35
2019-04-14T12:37:42.452Z,11.45
2019-04-14T12:40:12.041Z,10.90
2019-04-14T12:42:46.153Z,11.20
2019-04-14T12:45:33.606Z,11.57
2019-04-14T12:48:13.581Z,10.95
2019-04-14T12:50:44.546Z,10.98
2019-04-14T12:53:13.889Z,11.15
2019-04-14T12:55:43.213Z,11.30
2019-04-14T12:58:14.208Z,10.93
2019-04-14T13:00:45.169Z,10.15
2019-04-14T13:03:14.555Z,11.12
2019-04-14T13:05:44.020Z,9.83
2019-04-14T13:08:13.372Z,10.43
2019-04-14T13:10:42.698Z,11.83
2019-04-14T13:13:12.039Z,11.08
2019-04-14T13:15:41.370Z,11.63
2019-04-14T13:18:10.786Z,10.80
2019-04-14T13:20:40.184Z,10.58
2019-04-14T13:23:09.527Z,11.08
2019-04-14T13:25:38.855Z,10.78
2019-04-14T13:28:09.168Z,10.93
2019-04-14T13:30:40.127Z,10.13
2019-04-14T13:33:09.470Z,10.95
2019-04-14T13:35:38.849Z,10.40
2019-04-14T13:38:08.214Z,10.72
2019-04-14T13:40:37.543Z,10.13
2019-04-14T13:43:06.890Z,12.13
2019-04-14T13:45:36.218Z,11.20
2019-04-14T13:48:05.554Z,11.22
2019-04-14T13:50:34.869Z,11.60
2019-04-14T13:53:05.131Z,10.88
2019-04-14T13:55:34.469Z,12.25
2019-04-14T13:58:03.885Z,10.98
2019-04-14T14:00:33.352Z,11.55
2019-04-14T14:03:02.767Z,11.73
2019-04-14T14:05:32.094Z,12.18
2019-04-14T14:08:01.454Z,11.40
2019-04-14T14:10:31.953Z,12.07
2019-04-14T14:13:19.698Z,12.60
2019-04-14T14:16:06.708Z,12.15
2019-04-14T14:18:40.094Z,12.47
2019-04-14T14:21:13.994Z,12.55
2019-04-14T14:23:53.943Z,12.00
2019-04-14T14:26:33.926Z,10.95
2019-04-14T14:29:03.270Z,11.25
2019-04-14T14:31:32.609Z,11.97
2019-04-14T14:34:01.997Z,10.72
2019-04-14T14:36:31.403Z,11.33
2019-04-14T14:39:00.734Z,11.08
2019-04-14T14:41:31.690Z,10.88
2019-04-14T14:44:01.046Z,9.28
2019-04-14T14:46:37.720Z,10.00
2019-04-14T14:49:14.493Z,10.90
2019-04-14T14:51:57.701Z,10.10
2019-04-14T14:54:28.110Z,10.32
2019-04-14T14:56:57.511Z,10.10
2019-04-14T14:59:26.844Z,9.70
2019-04-14T15:01:56.174Z,9.48
2019-04-14T15:04:25.512Z,9.35
2019-04-14T15:06:54.826Z,8.35
2019-04-14T15:09:24.171Z,7.95
2019-04-14T15:11:53.514Z,8.10
2019-04-14T15:14:22.849Z,7.95
2019-04-14T15:16:52.242Z,7.97
2019-04-14T15:19:21.851Z,7.45
2019-04-14T15:21:51.309Z,7.42
2019-04-14T15:24:20.640Z,7.53
2019-04-14T15:26:49.981Z,7.50
2019-04-14T15:29:19.365Z,6.70
2019-04-14T15:31:48.722Z,6.97
2019-04-14T15:34:18.061Z,7.17
2019-04-14T15:36:47.390Z,7.70
2019-04-14T15:39:16.713Z,6.53
2019-04-14T15:41:46.076Z,6.92
2019-04-14T15:44:15.503Z,6.95
2019-04-14T15:46:45.903Z,6.83
2019-04-14T15:49:15.216Z,7.80
2019-04-14T15:51:44.555Z,8.28
2019-04-14T15:54:13.877Z,8.00
2019-04-14T15:56:44.911Z,7.05
2019-04-14T15:59:18.602Z,8.93
2019-04-14T16:01:49.662Z,7.47
2019-04-14T16:04:20.860Z,8.15
2019-04-14T16:06:54.621Z,8.18
2019-04-14T16:09:43.838Z,7.50
2019-04-14T16:12:14.813Z,8.33
2019-04-14T16:14:57.979Z,8.48
2019-04-14T16:17:40.976Z,8.48
2019-04-14T16:20:17.672Z,8.75
2019-04-14T16:22:47.082Z,8.13
2019-04-14T16:25:16.456Z,8.55
2019-04-14T16:27:47.502Z,8.03
2019-04-14T16:30:31.131Z,8.80
2019-04-14T16:33:02.201Z,9.25
2019-04-14T16:35:34.307Z,8.88
2019-04-14T16:38:03.749Z,8.75
2019-04-14T16:40:33.250Z,8.95
2019-04-14T16:43:02.602Z,9.35
2019-04-14T16:45:32.046Z,8.70
2019-04-14T16:48:01.395Z,10.18
2019-04-14T16:50:30.780Z,8.85
2019-04-14T16:53:04.423Z,9.63
2019-04-14T16:55:35.386Z,9.87
2019-04-14T16:58:21.682Z,8.65
2019-04-14T17:01:01.712Z,8.60
2019-04-14T17:03:32.231Z,8.60
2019-04-14T17:06:01.561Z,7.58
2019-04-14T17:08:31.978Z,7.28
2019-04-14T17:11:01.296Z,6.83
2019-04-14T17:13:32.540Z,7.30
2019-04-14T17:16:20.035Z,7.08
2019-04-14T17:19:05.771Z,7.25
2019-04-14T17:21:42.638Z,6.97
2019-04-14T17:24:17.011Z,7.47
2019-04-14T17:29:39.891Z,7.60
2019-04-14T17:32:16.816Z,8.28
2019-04-14T17:35:01.110Z,7.85
2019-04-14T17:37:50.043Z,8.65
2019-04-14T17:40:26.911Z,8.53
2019-04-14T17:43:09.735Z,8.48
2019-04-14T17:45:50.732Z,8.28
2019-04-14T17:48:41.513Z,8.78
2019-04-14T17:51:12.486Z,8.23
2019-04-14T17:53:43.458Z,7.92
2019-04-14T17:56:20.418Z,8.48
2019-04-14T17:59:09.798Z,8.28
2019-04-14T18:01:41.110Z,8.18
2019-04-14T18:04:30.417Z,7.90
2019-04-14T18:07:01.802Z,7.55
2019-04-14T18:09:50.758Z,7.78
2019-04-14T18:12:24.750Z,7.70
2019-04-14T18:14:55.745Z,7.67
2019-04-14T18:17:26.705Z,7.45
2019-04-14T18:20:03.795Z,7.22
2019-04-14T18:22:33.133Z,7.70
2019-04-14T18:25:02.573Z,7.35
2019-04-14T18:27:33.703Z,6.70
2019-04-14T18:30:21.267Z,6.60
2019-04-14T18:32:55.150Z,5.80
2019-04-14T18:35:31.568Z,6.87
2019-04-14T18:38:08.219Z,6.30
2019-04-14T18:40:42.125Z,6.70
2019-04-14T18:43:29.258Z,6.72
2019-04-14T18:46:00.241Z,6.60
2019-04-14T18:48:33.670Z,6.45
2019-04-14T18:51:04.637Z,5.60
2019-04-14T18:53:52.102Z,5.92
2019-04-14T18:56:23.089Z,6.22
2019-04-14T18:58:56.750Z,6.10
2019-04-14T19:01:27.794Z,6.03
2019-04-14T19:03:57.197Z,5.78
2019-04-14T19:06:26.525Z,5.45
2019-04-14T19:08:55.860Z,5.50
2019-04-14T19:11:29.346Z,5.80
2019-04-14T19:14:00.317Z,5.87
2019-04-14T19:16:40.528Z,5.78
2019-04-14T19:19:11.165Z,5.47
2019-04-14T19:21:40.486Z,5.60
2019-04-14T19:24:09.811Z,5.78
2019-04-14T19:26:39.199Z,5.75
2019-04-14T19:29:08.578Z,6.08
2019-04-14T19:31:37.926Z,5.67
2019-04-14T19:34:07.255Z,6.35
2019-04-14T19:36:36.663Z,5.75
2019-04-14T19:39:09.986Z,6.00
2019-04-14T19:41:39.849Z,5.90
2019-04-14T19:44:09.203Z,6.00
2019-04-14T19:46:38.529Z,6.40
2019-04-14T19:49:07.850Z,6.17
2019-04-14T19:51:37.174Z,5.97
2019-04-14T19:54:06.493Z,5.70
2019-04-14T19:56:35.906Z,5.67
2019-04-14T19:59:05.226Z,5.53
2019-04-14T20:01:34.549Z,5.90
2019-04-14T20:04:03.861Z,4.78
2019-04-14T20:06:33.226Z,5.37
2019-04-14T20:09:02.906Z,4.72
2019-04-14T20:11:33.933Z,5.20
2019-04-14T20:14:03.317Z,5.12
2019-04-14T20:16:37.232Z,5.22
2019-04-14T20:19:17.481Z,5.10
2019-04-14T20:21:57.518Z,4.95
2019-04-14T20:24:36.986Z,4.75
2019-04-14T20:27:10.646Z,5.50
2019-04-14T20:29:50.302Z,4.87
2019-04-14T20:32:27.010Z,4.92
2019-04-14T20:34:56.398Z,4.83
2019-04-14T20:37:25.725Z,4.75
2019-04-14T20:39:55.042Z,4.72
2019-04-14T20:42:24.371Z,4.55
2019-04-14T20:44:53.684Z,4.75
2019-04-14T20:47:23.015Z,4.67
2019-04-14T20:49:52.318Z,4.45
2019-04-14T20:52:22.617Z,4.78
2019-04-14T20:54:51.954Z,5.15
2019-04-14T20:57:21.274Z,4.65
2019-04-14T20:59:50.588Z,4.62
2019-04-14T21:02:30.353Z,4.50
2019-04-14T21:05:17.921Z,4.55
2019-04-14T21:07:51.567Z,4.80
2019-04-14T21:10:22.528Z,4.33
2019-04-14T21:12:53.484Z,4.55
2019-04-14T21:15:30.302Z,4.87
2019-04-14T21:18:01.281Z,4.65
2019-04-14T21:20:37.722Z,4.75
2019-04-14T21:23:08.685Z,4.25
2019-04-14T21:25:39.646Z,4.33
2019-04-14T21:28:13.691Z,4.95
2019-04-14T21:30:47.417Z,4.42
2019-04-14T21:33:33.475Z,4.47
2019-04-14T21:36:13.303Z,3.80
2019-04-14T21:38:53.133Z,4.08
2019-04-14T21:41:24.078Z,4.35
2019-04-14T21:43:53.482Z,3.67
2019-04-14T21:46:22.870Z,5.10
2019-04-14T21:48:52.197Z,4.05
2019-04-14T21:51:23.147Z,4.12
2019-04-14T21:53:52.479Z,3.77
2019-04-14T21:56:23.373Z,4.10
2019-04-14T21:59:12.666Z,3.77
2019-04-14T22:01:58.517Z,4.03
2019-04-14T22:04:41.337Z,3.60
2019-04-14T22:07:15.062Z,3.72
2019-04-14T22:09:44.450Z,3.87
2019-04-14T22:12:13.841Z,3.80
2019-04-14T22:14:43.177Z,3.77
2019-04-14T22:17:12.490Z,3.58
2019-04-14T22:19:41.824Z,3.60
2019-04-14T22:22:11.139Z,4.15
2019-04-14T22:24:40.457Z,4.22
2019-04-14T22:27:09.783Z,3.80
2019-04-14T22:29:39.173Z,3.52
2019-04-14T22:32:08.473Z,3.77
2019-04-14T22:34:37.810Z,4.17
2019-04-14T22:37:07.334Z,4.10
2019-04-14T22:39:39.109Z,4.12
2019-04-14T22:42:07.685Z,3.85
2019-04-14T22:44:37.019Z,4.05
2019-04-14T22:47:06.327Z,4.70
2019-04-14T22:49:35.654Z,4.25
2019-04-14T22:52:05.144Z,3.90
2019-04-14T22:54:34.463Z,4.15
2019-04-14T22:57:04.824Z,4.10
2019-04-14T22:59:34.155Z,4.33
2019-04-14T23:02:07.839Z,4.30
2019-04-14T23:04:50.511Z,4.20
2019-04-14T23:07:27.545Z,4.37
2019-04-14T23:09:58.529Z,4.42
2019-04-14T23:12:29.566Z,4.75
2019-04-14T23:15:03.421Z,4.60
2019-04-14T23:17:35.437Z,4.80
2019-04-14T23:20:17.482Z,4.30
2019-04-14T23:22:51.178Z,4.45
2019-04-14T23:25:20.506Z,4.40
2019-04-14T23:27:49.826Z,4.25
2019-04-14T23:30:19.154Z,4.40
2019-04-14T23:32:48.543Z,4.60
2019-04-14T23:35:17.872Z,4.25
2019-04-14T23:37:47.183Z,4.75
2019-04-14T23:40:16.650Z,4.42
2019-04-14T23:42:45.975Z,4.12
2019-04-14T23:45:15.479Z,4.35
2019-04-14T23:47:44.864Z,4.45
2019-04-14T23:50:14.343Z,4.20
2019-04-14T23:52:43.664Z,4.40
2019-04-14T23:55:13.150Z,4.10
2019-04-14T23:57:42.467Z,4.55
